Time;durP1;ratioP1;P1;durP2;ratioP2;P2;SDS_P1;SDS_P2;PMS_P1;PMS_P2;Temp;Humidity;BMP_temperature;BMP_pressure;BME280_temperature;BME280_humidity;BME280_pressure;Samples;Min_cycle;Max_cycle;Signal;HPM_P1;HPM_P2
2021/12/25 00:00:48;;;;;;;14.07;8.73;;;;;;;7.96;58.73;94336.75;4973704;28;20205;-78
2021/12/25 00:03:16;;;;;;;12.50;8.70;;;;;;;7.96;58.90;94347.75;4974422;28;20204;-78
2021/12/25 00:05:45;;;;;;;13.47;9.30;;;;;;;7.96;58.90;94345.19;4973579;28;20192;-80
2021/12/25 00:08:12;;;;;;;12.60;8.77;;;;;;;7.79;58.74;94318.63;4972916;28;20190;-80
2021/12/25 00:10:39;;;;;;;13.30;9.50;;;;;;;8.00;58.75;94354.19;4973592;28;20198;-79
2021/12/25 00:13:05;;;;;;;12.07;8.80;;;;;;;8.00;58.97;94338.91;4973661;28;20197;-79
2021/12/25 00:15:32;;;;;;;12.97;9.57;;;;;;;8.01;58.96;94352.44;4973503;28;20212;-79
2021/12/25 00:17:59;;;;;;;13.63;9.30;;;;;;;7.84;59.06;94327.63;4973356;28;20198;-80
2021/12/25 00:20:26;;;;;;;14.30;9.50;;;;;;;8.03;58.90;94374.31;4973063;28;20202;-81
2021/12/25 00:22:54;;;;;;;14.50;9.63;;;;;;;7.97;58.99;94351.09;4973595;28;20201;-80
2021/12/25 00:25:22;;;;;;;12.67;9.47;;;;;;;8.01;59.13;94383.81;4973092;28;20211;-80
2021/12/25 00:27:57;;;;;;;14.80;9.53;;;;;;;7.93;59.05;94370.09;4973496;28;20670;-80
2021/12/25 00:30:31;;;;;;;13.17;9.27;;;;;;;7.99;59.02;94387.44;4973018;28;20197;-79
2021/12/25 00:33:03;;;;;;;13.80;9.37;;;;;;;7.97;59.18;94394.38;4973201;28;20225;-78
2021/12/25 00:35:30;;;;;;;13.57;8.93;;;;;;;7.94;59.14;94397.97;4973436;28;20661;-78
2021/12/25 00:37:58;;;;;;;15.30;9.30;;;;;;;7.94;59.11;94404.81;4973339;28;20565;-80
2021/12/25 00:40:25;;;;;;;14.23;8.73;;;;;;;7.92;59.17;94404.16;4972626;28;20190;-78
2021/12/25 00:42:52;;;;;;;12.47;8.53;;;;;;;7.89;59.23;94414.56;4973461;28;20186;-79
2021/12/25 00:45:19;;;;;;;14.83;8.90;;;;;;;7.88;59.37;94408.69;4973227;28;20190;-79
2021/12/25 00:47:45;;;;;;;14.70;9.47;;;;;;;7.88;59.25;94403.59;4973025;28;20193;-79
2021/12/25 00:50:12;;;;;;;14.90;9.57;;;;;;;7.88;59.43;94410.44;4973160;28;20736;-79
2021/12/25 00:52:40;;;;;;;13.73;9.00;;;;;;;7.86;59.36;94395.28;4972849;28;20217;-79
2021/12/25 00:55:09;;;;;;;14.53;8.40;;;;;;;7.86;59.21;94382.56;4973257;28;20200;-79
2021/12/25 00:57:37;;;;;;;14.17;9.20;;;;;;;7.85;59.34;94387.75;4973117;28;20642;-79
2021/12/25 01:00:09;;;;;;;15.43;8.93;;;;;;;7.83;59.36;94387.09;4972992;28;20198;-79
2021/12/25 01:02:38;;;;;;;13.07;8.13;;;;;;;7.82;59.44;94385.50;4972362;28;20197;-79
2021/12/25 01:05:07;;;;;;;16.80;8.87;;;;;;;7.79;59.58;94382.25;4972778;28;20193;-80
2021/12/25 01:07:34;;;;;;;11.07;7.70;;;;;;;7.79;59.60;94389.91;4972869;28;20597;-79
2021/12/25 01:10:03;;;;;;;10.73;8.40;;;;;;;7.19;59.77;94292.28;4972677;28;20201;-79
2021/12/25 01:12:42;;;;;;;12.03;7.73;;;;;;;7.71;59.62;94369.38;4972309;28;20724;-79
2021/12/25 01:15:10;;;;;;;10.40;8.23;;;;;;;7.78;59.66;94387.47;4972599;28;20189;-79
2021/12/25 01:18:05;;;;;;;13.97;8.43;;;;;;;7.71;59.52;94369.38;4972668;28;20197;-79
2021/12/25 01:23:49;;;;;;;11.73;8.87;;;;;;;7.56;59.76;94352.84;4970499;28;20213;-79
2021/12/25 01:26:48;;;;;;;25.37;14.20;;;;;;;7.50;59.77;94338.88;4972158;28;20697;-78
2021/12/25 01:29:27;;;;;;;22.40;13.80;;;;;;;7.75;59.82;94369.91;4972234;28;20245;-79
2021/12/25 01:32:14;;;;;;;20.00;11.37;;;;;;;7.68;59.93;94363.72;4972358;28;20232;-79
2021/12/25 01:35:05;;;;;;;18.37;10.73;;;;;;;7.73;59.96;94369.25;4972510;28;20190;-78
2021/12/25 01:37:40;;;;;;;16.80;10.43;;;;;;;7.71;59.96;94373.66;4972333;28;20205;-79
2021/12/25 01:40:23;;;;;;;17.87;10.43;;;;;;;7.55;59.71;94361.38;4972384;28;20267;-79
2021/12/25 01:48:22;;;;;;;16.27;9.87;;;;;;;7.61;60.10;94375.38;4972015;28;20185;-79
2021/12/25 01:50:50;;;;;;;14.93;10.23;;;;;;;7.44;60.08;94344.47;4971401;28;20238;-79
2021/12/25 01:53:17;;;;;;;15.20;9.47;;;;;;;7.58;60.08;94378.16;4971946;28;20229;-79
2021/12/25 01:55:44;;;;;;;13.40;9.13;;;;;;;7.57;60.30;94372.25;4972525;28;20194;-79
2021/12/25 01:58:11;;;;;;;13.67;9.27;;;;;;;7.21;60.38;94313.34;4972698;28;20190;-79
2021/12/25 02:00:42;;;;;;;14.80;8.90;;;;;;;7.54;60.24;94368.22;4973636;28;20194;-78
2021/12/25 02:03:11;;;;;;;15.20;9.57;;;;;;;7.50;60.26;94363.50;4972988;28;20684;-81
2021/12/25 02:05:38;;;;;;;10.87;8.37;;;;;;;7.51;60.33;94358.31;4972146;28;20240;-78
2021/12/25 02:08:06;;;;;;;13.13;9.47;;;;;;;7.50;60.37;94361.78;4972000;28;20189;-78
2021/12/25 02:10:34;;;;;;;15.60;9.37;;;;;;;7.28;60.15;94324.59;4971661;28;20193;-78
2021/12/25 02:13:02;;;;;;;16.63;9.53;;;;;;;7.50;60.20;94354.13;4971838;28;20221;-78
2021/12/25 02:15:30;;;;;;;14.57;9.33;;;;;;;7.23;60.37;94313.19;4970821;28;20190;-78
2021/12/25 02:18:09;;;;;;;12.37;9.07;;;;;;;7.52;60.45;94354.84;4971353;28;20194;-79
2021/12/25 02:20:45;;;;;;;12.73;9.40;;;;;;;7.19;60.54;94287.22;4971964;28;20197;-78
2021/12/25 02:23:16;;;;;;;12.67;9.10;;;;;;;7.56;60.54;94342.66;4971570;28;20773;-79
2021/12/25 02:25:44;;;;;;;13.37;9.47;;;;;;;7.51;60.51;94326.94;4971772;28;20197;-78
2021/12/25 02:28:14;;;;;;;16.17;9.20;;;;;;;7.59;60.61;94339.03;4973677;28;20190;-78
2021/12/25 02:30:42;;;;;;;14.20;9.27;;;;;;;7.61;60.33;94352.47;4975664;28;20182;-78
2021/12/25 02:33:09;;;;;;;13.60;9.23;;;;;;;7.61;60.33;94350.72;4972667;28;20220;-78
2021/12/25 02:35:38;;;;;;;13.80;9.83;;;;;;;7.61;60.52;94347.38;4971443;28;20190;-78
2021/12/25 02:38:06;;;;;;;13.87;8.80;;;;;;;7.62;60.53;94341.34;4971197;28;20193;-79
2021/12/25 02:40:33;;;;;;;15.00;9.97;;;;;;;7.63;60.43;94335.31;4971181;28;20248;-78
2021/12/25 02:43:00;;;;;;;14.70;9.63;;;;;;;7.66;60.37;94350.34;4971054;28;20193;-78
2021/12/25 02:45:27;;;;;;;14.70;10.10;;;;;;;7.67;60.52;94345.09;4971297;28;20186;-78
2021/12/25 02:47:55;;;;;;;13.67;9.73;;;;;;;7.68;60.42;94349.25;4970980;28;20186;-79
2021/12/25 02:50:24;;;;;;;13.60;8.57;;;;;;;7.69;60.57;94350.88;4970997;28;20367;-79
2021/12/25 02:52:53;;;;;;;11.53;8.60;;;;;;;7.72;60.70;94349.81;4971003;28;20229;-81
2021/12/25 02:55:20;;;;;;;13.10;8.63;;;;;;;7.67;60.55;94331.56;4971057;28;20689;-80
2021/12/25 02:57:50;;;;;;;59.47;29.27;;;;;;;7.53;60.48;94309.84;4970728;28;20194;-80
2021/12/25 03:00:18;;;;;;;88.47;39.47;;;;;;;7.78;60.75;94339.94;4971219;28;20204;-80
2021/12/25 03:02:45;;;;;;;37.30;19.43;;;;;;;7.80;60.49;94337.25;4971232;28;20194;-80
2021/12/25 03:05:12;;;;;;;28.00;16.23;;;;;;;7.83;60.53;94333.66;4971558;28;20577;-80
2021/12/25 03:07:39;;;;;;;27.53;16.17;;;;;;;7.75;60.64;94329.19;4970883;28;20205;-80
2021/12/25 03:10:09;;;;;;;26.40;16.20;;;;;;;7.48;60.51;94286.53;4971078;28;20190;-80
2021/12/25 03:12:47;;;;;;;28.00;15.03;;;;;;;7.88;60.47;94332.31;4970939;28;20244;-80
2021/12/25 03:15:17;;;;;;;24.27;14.07;;;;;;;7.91;60.47;94344.00;4971280;28;20268;-80
2021/12/25 03:17:45;;;;;;;21.67;14.17;;;;;;;7.92;60.51;94340.50;4970949;28;20289;-80
2021/12/25 03:20:13;;;;;;;24.07;15.83;;;;;;;7.95;60.58;94342.78;4970877;28;20645;-80
2021/12/25 03:22:40;;;;;;;24.67;15.70;;;;;;;7.96;60.56;94344.41;4970840;28;20593;-80
2021/12/25 03:25:10;;;;;;;22.80;15.23;;;;;;;7.99;60.47;94339.06;4970691;28;20198;-79
2021/12/25 03:27:37;;;;;;;21.97;14.00;;;;;;;7.93;60.46;94331.91;4973584;28;20196;-79
2021/12/25 03:30:06;;;;;;;20.20;12.70;;;;;;;7.78;60.46;94321.31;4974918;28;20243;-79
2021/12/25 03:32:33;;;;;;;18.33;12.23;;;;;;;7.97;60.33;94343.44;4974613;28;20233;-79
2021/12/25 03:35:00;;;;;;;16.33;11.60;;;;;;;7.93;60.35;94339.56;4974404;28;20194;-80
2021/12/25 03:37:28;;;;;;;14.00;11.53;;;;;;;7.97;60.31;94333.28;4974394;28;20681;-79
2021/12/25 03:39:55;;;;;;;15.27;10.67;;;;;;;8.07;60.64;94351.09;4974245;28;20198;-80
2021/12/25 03:42:23;;;;;;;15.73;10.97;;;;;;;8.08;60.33;94325.53;4974625;28;20201;-80
2021/12/25 03:44:50;;;;;;;16.30;10.47;;;;;;;8.08;60.43;94350.19;4974442;28;20612;-79
2021/12/25 03:47:26;;;;;;;14.07;9.70;;;;;;;8.07;60.50;94339.19;4974323;28;20194;-78
2021/12/25 03:58:12;;;;;;;14.47;9.10;;;;;;;7.98;60.46;94337.41;4973268;28;20201;-80
2021/12/25 04:00:41;;;;;;;10.17;8.00;;;;;;;8.12;60.48;94354.91;4973694;28;20194;-80
2021/12/25 04:03:15;;;;;;;11.10;8.33;;;;;;;8.15;60.38;94356.34;4974038;28;20245;-79
2021/12/25 04:05:44;;;;;;;11.50;7.63;;;;;;;8.10;60.30;94333.81;4974356;28;20326;-79
2021/12/25 04:08:14;;;;;;;12.27;8.07;;;;;;;8.05;60.29;94329.13;4973696;28;20201;-78
2021/12/25 04:10:43;;;;;;;11.77;8.07;;;;;;;8.20;60.20;94349.13;4973767;28;20200;-79
2021/12/25 04:13:13;;;;;;;13.63;8.10;;;;;;;8.22;60.23;94347.25;4973368;28;20237;-78
2021/12/25 04:15:41;;;;;;;9.30;7.27;;;;;;;8.23;60.20;94359.84;4973985;28;20196;-79
2021/12/25 04:18:07;;;;;;;10.53;7.67;;;;;;;8.25;60.04;94349.56;4973672;28;20198;-79
2021/12/25 04:20:35;;;;;;;11.33;7.70;;;;;;;8.12;60.13;94331.13;4973873;28;20202;-79
2021/12/25 04:23:05;;;;;;;11.33;7.50;;;;;;;8.28;60.06;94359.47;4973425;28;20205;-78
2021/12/25 04:25:34;;;;;;;10.53;7.50;;;;;;;8.28;60.06;94355.16;4973684;28;20194;-79
2021/12/25 04:28:10;;;;;;;9.43;6.97;;;;;;;8.29;60.03;94364.44;4973174;28;20252;-79
2021/12/25 04:30:57;;;;;;;11.20;6.83;;;;;;;8.31;60.09;94366.84;4973465;28;20215;-78
2021/12/25 04:42:43;;;;;;;12.77;7.23;;;;;;;8.31;60.11;94359.19;4973163;28;20253;-79
2021/12/25 04:50:20;;;;;;;32.90;17.10;;;;;;;8.36;60.19;94363.91;4973401;28;20196;-79
2021/12/25 05:03:49;;;;;;;17.20;9.77;;;;;;;8.32;60.19;94381.19;4972838;28;20696;-79
2021/12/25 05:06:16;;;;;;;19.93;9.57;;;;;;;8.37;60.24;94388.47;4973056;28;20224;-78
2021/12/25 05:08:43;;;;;;;14.77;9.40;;;;;;;8.29;60.26;94374.63;4972745;28;20628;-79
2021/12/25 05:11:10;;;;;;;18.07;9.27;;;;;;;8.37;60.21;94391.81;4973009;28;20197;-78
2021/12/25 05:13:37;;;;;;;12.13;8.93;;;;;;;8.01;60.15;94335.41;4972614;28;20689;-79
2021/12/25 05:16:04;;;;;;;14.03;8.10;;;;;;;8.21;60.20;94382.13;4972745;28;20609;-78
2021/12/25 05:18:31;;;;;;;10.33;7.40;;;;;;;8.33;60.27;94398.06;4972658;28;20556;-78
2021/12/25 05:20:59;;;;;;;10.00;7.27;;;;;;;8.33;60.37;94394.72;4972875;28;20209;-78
2021/12/25 05:23:26;;;;;;;10.17;7.63;;;;;;;8.34;60.24;94397.16;4972432;28;20198;-78
2021/12/25 05:25:53;;;;;;;12.53;7.00;;;;;;;8.36;60.30;94407.22;4972754;28;20236;-78
2021/12/25 05:28:26;;;;;;;9.63;5.90;;;;;;;8.36;60.39;94409.75;4972578;28;20202;-78
2021/12/25 05:30:54;;;;;;;9.13;6.80;;;;;;;8.29;60.41;94394.22;4972743;28;20292;-78
2021/12/25 05:33:22;;;;;;;10.63;7.20;;;;;;;8.28;60.39;94390.81;4972428;28;20225;-78
2021/12/25 05:35:49;;;;;;;15.73;6.20;;;;;;;8.39;60.38;94391.69;4972570;28;20198;-79
2021/12/25 05:38:18;;;;;;;7.80;5.63;;;;;;;8.39;60.20;94387.41;4972072;28;20212;-80
2021/12/25 05:40:46;;;;;;;8.40;6.03;;;;;;;8.35;60.16;94382.69;4972659;28;20189;-80
2021/12/25 05:43:14;;;;;;;10.87;6.80;;;;;;;8.42;60.31;94397.34;4971910;28;20190;-78
2021/12/25 05:45:40;;;;;;;9.53;6.40;;;;;;;8.44;60.38;94397.19;4972248;28;20209;-79
2021/12/25 05:48:07;;;;;;;7.87;6.00;;;;;;;8.38;60.25;94403.63;4972552;28;20203;-78
2021/12/25 05:50:35;;;;;;;6.23;5.37;;;;;;;8.49;60.33;94410.34;4971623;28;20260;-80
2021/12/25 05:53:01;;;;;;;8.60;5.90;;;;;;;8.39;60.21;94389.97;4972234;28;20236;-78
2021/12/25 05:55:30;;;;;;;8.97;6.43;;;;;;;8.54;60.21;94416.66;4971838;28;20197;-79
2021/12/25 05:57:57;;;;;;;7.40;5.83;;;;;;;8.57;60.08;94422.44;4972108;28;20205;-79
2021/12/25 06:00:24;;;;;;;10.03;6.63;;;;;;;8.60;60.03;94438.28;4972160;28;20190;-79
2021/12/25 06:02:52;;;;;;;7.60;5.60;;;;;;;8.37;59.94;94388.47;4971807;28;20205;-80
2021/12/25 06:05:20;;;;;;;9.47;5.63;;;;;;;8.66;60.13;94429.28;4972256;28;20202;-80
2021/12/25 06:07:47;;;;;;;11.10;6.30;;;;;;;8.68;60.10;94424.84;4971913;28;20200;-79
2021/12/25 06:10:13;;;;;;;9.37;6.40;;;;;;;8.42;59.87;94392.25;4971642;28;20617;-79
2021/12/25 06:12:43;;;;;;;8.07;6.43;;;;;;;8.66;59.77;94427.53;4971646;28;20193;-79
2021/12/25 06:15:12;;;;;;;9.10;5.97;;;;;;;8.76;59.74;94427.53;4971961;28;20209;-79
2021/12/25 06:17:40;;;;;;;9.17;6.10;;;;;;;8.78;59.73;94431.59;4971609;28;20190;-79
2021/12/25 06:20:09;;;;;;;10.27;6.10;;;;;;;8.83;59.68;94443.13;4975231;28;20208;-79
2021/12/25 06:22:36;;;;;;;8.33;6.30;;;;;;;8.86;59.60;94441.13;4975737;28;20193;-78
2021/12/25 06:25:03;;;;;;;7.50;5.53;;;;;;;8.90;59.60;94447.56;4971820;28;20204;-79
2021/12/25 06:27:30;;;;;;;7.10;5.67;;;;;;;8.83;59.46;94425.28;4971281;28;20204;-79
2021/12/25 06:29:58;;;;;;;9.83;6.90;;;;;;;8.70;59.44;94384.75;4971385;28;20200;-78
2021/12/25 06:32:25;;;;;;;10.00;7.43;;;;;;;9.02;59.30;94428.66;4971599;28;20649;-79
2021/12/25 06:34:52;;;;;;;8.63;6.80;;;;;;;9.05;59.26;94433.47;4971502;28;20913;-79
2021/12/25 06:37:19;;;;;;;9.20;6.13;;;;;;;9.08;59.21;94437.50;4971468;28;20306;-79
2021/12/25 06:39:47;;;;;;;7.63;6.33;;;;;;;9.13;59.19;94445.53;4971264;28;20655;-79
2021/12/25 06:42:15;;;;;;;9.13;6.53;;;;;;;9.16;59.10;94439.38;4971311;28;20197;-79
2021/12/25 06:44:42;;;;;;;7.50;6.73;;;;;;;9.19;58.97;94436.53;4971160;28;20197;-80
2021/12/25 06:47:10;;;;;;;8.57;6.57;;;;;;;8.93;59.04;94403.94;4971301;28;20198;-79
2021/12/25 06:49:37;;;;;;;10.57;7.00;;;;;;;9.24;59.06;94447.97;4971597;28;20205;-80
2021/12/25 06:52:05;;;;;;;9.30;6.87;;;;;;;9.26;58.84;94451.19;4971723;28;20237;-78
2021/12/25 06:54:33;;;;;;;9.13;7.13;;;;;;;9.21;58.91;94440.56;4972688;28;20228;-79
2021/12/25 06:57:01;;;;;;;12.97;7.90;;;;;;;9.32;58.92;94461.78;4971922;28;20194;-77
2021/12/25 06:59:30;;;;;;;9.03;7.27;;;;;;;9.37;58.80;94449.41;4971410;28;20204;-79
2021/12/25 07:01:57;;;;;;;11.00;7.30;;;;;;;9.41;59.13;94455.84;4972164;28;20196;-79
2021/12/25 07:04:25;;;;;;;12.53;7.23;;;;;;;9.47;58.51;94456.13;4975778;28;20696;-82
2021/12/25 07:06:52;;;;;;;10.17;6.90;;;;;;;9.18;58.45;94404.31;4975326;28;20201;-81
2021/12/25 07:09:19;;;;;;;10.07;7.33;;;;;;;9.67;58.53;94481.59;4975238;28;20580;-79
2021/12/25 07:11:46;;;;;;;9.57;7.90;;;;;;;9.86;58.17;94473.13;4975348;28;20198;-80
2021/12/25 07:14:13;;;;;;;10.73;7.37;;;;;;;10.14;57.86;94476.50;4974555;28;20240;-76
2021/12/25 07:16:41;;;;;;;5.07;4.00;;;;;;;10.88;100.00;94478.19;4974992;28;20197;-78
2021/12/25 07:19:10;;;;;;;10.30;4.17;;;;;;;11.47;99.25;94423.81;4974570;28;20198;-77
2021/12/25 07:21:38;;;;;;;4.47;3.93;;;;;;;12.73;92.55;94470.28;4975161;28;20200;-83
2021/12/25 07:24:05;;;;;;;10.03;6.90;;;;;;;13.35;87.04;94467.38;4974932;28;20204;-77
2021/12/25 07:26:32;;;;;;;11.63;7.10;;;;;;;13.59;80.21;94469.94;4974648;28;20200;-75
2021/12/25 07:28:59;;;;;;;10.20;7.20;;;;;;;13.67;74.73;94482.78;4974398;28;20194;-77
2021/12/25 07:31:26;;;;;;;11.17;6.70;;;;;;;13.69;70.89;94488.56;4974720;28;20205;-79
2021/12/25 07:33:52;;;;;;;12.20;7.90;;;;;;;13.67;67.40;94484.53;4974826;28;20248;-76
2021/12/25 07:36:19;;;;;;;12.37;8.20;;;;;;;13.61;65.25;94487.78;4974687;28;20215;-77
2021/12/25 07:38:48;;;;;;;13.17;8.40;;;;;;;13.53;63.16;94473.94;4974261;28;20223;-78
2021/12/25 07:41:14;;;;;;;13.80;9.30;;;;;;;13.45;61.56;94481.66;4974584;28;20268;-79
2021/12/25 07:43:41;;;;;;;12.73;8.53;;;;;;;13.35;60.24;94485.34;4975438;28;20196;-77
2021/12/25 07:46:08;;;;;;;10.47;7.87;;;;;;;13.19;59.46;94478.41;4975464;28;20193;-77
2021/12/25 07:48:35;;;;;;;11.00;8.20;;;;;;;13.15;58.91;94484.81;4974244;28;20194;-78
2021/12/25 07:51:03;;;;;;;13.23;8.63;;;;;;;13.04;57.68;94480.78;4974205;28;20241;-78
2021/12/25 07:53:31;;;;;;;10.47;7.83;;;;;;;12.79;57.13;94467.09;4974279;28;20678;-77
2021/12/25 07:55:59;;;;;;;8.20;6.97;;;;;;;12.86;56.40;94493.72;4972551;28;20230;-75
2021/12/25 07:58:26;;;;;;;12.37;7.60;;;;;;;12.54;56.21;94445.69;4973847;28;20202;-76
2021/12/25 08:00:54;;;;;;;11.13;7.10;;;;;;;12.67;55.74;94489.66;4973858;28;20193;-76
2021/12/25 08:03:22;;;;;;;10.23;6.50;;;;;;;12.57;55.59;94498.47;4974159;28;20197;-78
2021/12/25 08:05:49;;;;;;;10.87;6.53;;;;;;;12.50;55.45;94493.94;4973737;28;20201;-84
2021/12/25 08:08:16;;;;;;;8.17;7.03;;;;;;;12.44;55.15;94488.63;4974994;28;20201;-80
2021/12/25 08:10:43;;;;;;;8.90;6.37;;;;;;;12.38;54.78;94495.16;4974177;28;20193;-83
2021/12/25 08:13:13;;;;;;;6.50;5.80;;;;;;;12.23;54.73;94479.56;4974740;28;20202;-79
2021/12/25 08:15:41;;;;;;;8.10;6.57;;;;;;;12.37;54.52;94505.56;4974039;28;20198;-80
2021/12/25 08:18:08;;;;;;;13.17;7.23;;;;;;;12.35;53.95;94500.63;4974118;28;20198;-79
2021/12/25 08:20:36;;;;;;;11.67;7.83;;;;;;;12.32;54.23;94492.41;4973702;28;20202;-80
2021/12/25 08:23:04;;;;;;;11.57;7.87;;;;;;;12.30;54.05;94497.69;4972129;28;20647;-80
2021/12/25 08:25:31;;;;;;;12.77;7.27;;;;;;;12.03;54.07;94461.03;4973779;28;20201;-76
2021/12/25 08:27:58;;;;;;;10.07;7.13;;;;;;;12.30;53.94;94502.81;4973413;28;20194;-79
2021/12/25 08:30:27;;;;;;;9.67;7.30;;;;;;;12.11;53.74;94467.16;4973740;28;20193;-80
2021/12/25 08:32:55;;;;;;;10.93;7.00;;;;;;;12.36;53.72;94497.09;4973239;28;20198;-79
2021/12/25 08:35:23;;;;;;;8.83;6.80;;;;;;;12.42;53.44;94505.91;4973418;28;20288;-80
2021/12/25 08:37:50;;;;;;;10.33;7.17;;;;;;;12.43;53.44;94497.25;4973183;28;20690;-81
2021/12/25 08:40:17;;;;;;;8.57;6.83;;;;;;;12.43;53.32;94497.25;4973519;28;20201;-78
2021/12/25 08:42:52;;;;;;;8.93;6.93;;;;;;;12.49;52.97;94494.09;4973599;28;20201;-79
2021/12/25 08:45:40;;;;;;;8.77;6.77;;;;;;;12.54;53.09;94486.75;4974490;28;20192;-77
2021/12/25 08:48:12;;;;;;;9.53;6.67;;;;;;;12.55;52.79;94475.50;4973735;28;20198;-77
2021/12/25 08:50:39;;;;;;;8.13;6.40;;;;;;;12.54;53.06;94484.97;4972797;28;20280;-79
2021/12/25 08:53:06;;;;;;;8.93;6.97;;;;;;;12.56;52.91;94484.81;4973503;28;20198;-80
2021/12/25 08:55:33;;;;;;;8.50;7.07;;;;;;;12.58;52.96;94482.09;4973525;28;20236;-81
2021/12/25 08:58:00;;;;;;;8.33;6.70;;;;;;;12.60;52.69;94464.78;4972997;28;20200;-77
2021/12/25 09:00:27;;;;;;;8.43;6.47;;;;;;;12.55;52.71;94460.91;4972997;28;20193;-84
2021/12/25 09:02:54;;;;;;;13.90;8.00;;;;;;;12.72;52.44;94474.59;4972839;28;20193;-77
2021/12/25 09:05:23;;;;;;;11.17;7.47;;;;;;;12.72;52.07;94453.28;4972897;28;20201;-78
2021/12/25 09:07:50;;;;;;;9.87;6.43;;;;;;;12.96;51.99;94461.03;4972742;28;20604;-78
2021/12/25 09:10:18;;;;;;;12.43;7.33;;;;;;;13.12;51.86;94459.44;4973461;28;20675;-79
2021/12/25 09:12:45;;;;;;;10.47;7.20;;;;;;;13.19;51.82;94448.38;4972836;28;20193;-77
2021/12/25 09:15:13;;;;;;;11.70;7.33;;;;;;;13.35;51.36;94452.75;4972701;28;20226;-76
2021/12/25 09:17:40;;;;;;;17.43;7.37;;;;;;;13.40;51.38;94458.22;4972423;28;20194;-74
2021/12/25 09:20:09;;;;;;;10.07;6.77;;;;;;;13.41;51.45;94448.75;4972654;28;20201;-75
2021/12/25 09:22:37;;;;;;;11.67;7.63;;;;;;;13.43;51.25;94459.69;4972435;28;20256;-76
2021/12/25 09:25:05;;;;;;;9.17;7.37;;;;;;;13.45;51.11;94455.16;4972078;28;20198;-75
2021/12/25 09:27:32;;;;;;;9.87;7.07;;;;;;;13.45;50.96;94453.41;4972301;28;20200;-76
2021/12/25 09:29:59;;;;;;;10.60;7.17;;;;;;;13.45;51.12;94437.19;4973605;28;20261;-74
2021/12/25 09:32:26;;;;;;;12.17;7.83;;;;;;;13.44;51.12;94438.16;4971827;28;20185;-75
2021/12/25 09:35:00;;;;;;;9.83;7.07;;;;;;;13.43;50.93;94439.13;4968619;28;20276;-76
2021/12/25 09:37:27;;;;;;;10.87;7.87;;;;;;;13.38;50.90;94428.50;4971864;28;20573;-76
2021/12/25 09:39:55;;;;;;;9.83;7.67;;;;;;;13.44;50.92;94431.25;4971541;28;20189;-74
2021/12/25 09:42:24;;;;;;;9.73;7.13;;;;;;;13.48;50.74;94436.88;4970740;28;20190;-75
2021/12/25 09:44:51;;;;;;;11.73;7.93;;;;;;;13.54;50.83;94429.31;4970577;28;20197;-74
2021/12/25 09:47:22;;;;;;;10.30;7.50;;;;;;;13.65;50.57;94424.81;4971224;28;20194;-75
2021/12/25 09:49:49;;;;;;;9.90;6.90;;;;;;;13.73;50.59;94417.91;4970835;28;20190;-77
2021/12/25 09:52:16;;;;;;;8.87;6.87;;;;;;;13.78;50.49;94409.69;4971094;28;20233;-75
2021/12/25 09:54:43;;;;;;;9.73;7.67;;;;;;;13.84;50.50;94418.50;4969530;28;20862;-75
2021/12/25 09:57:14;;;;;;;11.27;7.17;;;;;;;13.83;50.28;94397.16;4969616;28;20190;-75
2021/12/25 09:59:41;;;;;;;10.70;7.03;;;;;;;13.93;50.26;94414.94;4970109;28;20232;-76
2021/12/25 10:02:13;;;;;;;9.70;6.90;;;;;;;13.95;50.25;94402.75;4970659;28;20216;-73
2021/12/25 10:04:43;;;;;;;12.63;7.63;;;;;;;13.75;50.27;94379.16;4969886;28;20205;-75
2021/12/25 10:07:18;;;;;;;12.43;6.73;;;;;;;13.91;49.93;94396.31;4970404;28;20209;-72
2021/12/25 10:09:55;;;;;;;9.63;6.93;;;;;;;13.96;49.94;94396.63;4970253;28;20283;-76
2021/12/25 10:12:28;;;;;;;8.97;6.10;;;;;;;13.88;49.81;94384.59;4971398;28;20699;-74
2021/12/25 10:14:55;;;;;;;11.27;6.93;;;;;;;14.06;49.71;94398.03;4970455;28;20272;-77
2021/12/25 10:17:25;;;;;;;11.03;6.77;;;;;;;14.12;49.49;94388.03;4971498;28;20197;-72
2021/12/25 10:20:07;;;;;;;9.47;6.17;;;;;;;14.11;49.25;94389.81;4970425;28;20186;-77
2021/12/25 10:22:35;;;;;;;10.13;6.20;;;;;;;14.10;49.39;94385.66;4966558;28;20198;-72
2021/12/25 10:25:07;;;;;;;10.43;6.50;;;;;;;14.17;49.27;94391.72;4970705;28;20205;-75
2021/12/25 10:27:35;;;;;;;10.90;6.43;;;;;;;14.30;49.03;94386.84;4971048;28;20256;-73
2021/12/25 10:30:06;;;;;;;10.20;5.77;;;;;;;14.43;49.11;94382.94;4971006;28;20189;-72
2021/12/25 10:32:38;;;;;;;12.70;5.73;;;;;;;14.40;49.69;94352.41;4968653;28;20636;-72
2021/12/25 10:35:15;;;;;;;9.73;5.67;;;;;;;14.54;50.02;94365.34;4970912;28;20256;-74
2021/12/25 10:37:42;;;;;;;8.90;6.53;;;;;;;14.62;49.84;94372.22;4969404;28;20205;-75
2021/12/25 10:40:25;;;;;;;11.53;6.27;;;;;;;14.72;49.86;94369.44;4970457;28;20551;-74
2021/12/25 10:42:54;;;;;;;9.23;5.93;;;;;;;14.80;50.45;94370.19;4968586;28;20612;-73
2021/12/25 10:45:22;;;;;;;9.83;6.77;;;;;;;14.92;50.89;94368.00;4970768;28;20193;-74
2021/12/25 10:48:01;;;;;;;10.70;6.23;;;;;;;15.01;50.81;94368.75;4971030;28;20285;-75
2021/12/25 10:50:35;;;;;;;10.67;6.83;;;;;;;15.03;50.48;94362.47;4970734;28;20229;-79
2021/12/25 10:53:05;;;;;;;11.57;6.57;;;;;;;15.10;50.28;94354.03;4971013;28;20190;-77
2021/12/25 10:55:31;;;;;;;8.73;6.17;;;;;;;15.16;49.75;94349.00;4970436;28;20283;-75
2021/12/25 10:58:01;;;;;;;13.10;6.73;;;;;;;15.04;49.60;94329.78;4970225;28;20603;-77
2021/12/25 11:00:31;;;;;;;10.93;6.47;;;;;;;15.25;49.18;94355.69;4970268;28;20197;-76
2021/12/25 11:02:59;;;;;;;7.97;5.83;;;;;;;15.31;48.55;94349.03;4969682;28;20190;-78
2021/12/25 11:05:32;;;;;;;8.93;6.13;;;;;;;15.24;48.34;94322.34;4970402;28;20190;-77
2021/12/25 11:08:09;;;;;;;10.13;6.73;;;;;;;15.40;48.23;94340.25;4969670;28;20197;-76
2021/12/25 11:10:45;;;;;;;7.57;6.63;;;;;;;15.36;48.00;94310.66;4968433;28;20544;-77
2021/12/25 11:13:24;;;;;;;9.57;7.10;;;;;;;15.45;47.85;94321.66;4967161;28;20208;-77
2021/12/25 11:15:57;;;;;;;10.90;8.07;;;;;;;15.38;47.83;94300.19;4972026;28;20292;-75
2021/12/25 11:18:24;;;;;;;12.37;4.67;;;;;;;15.39;62.11;94289.69;4970672;28;20208;-76
2021/12/25 11:21:35;;;;;;;13.47;4.20;;;;;;;15.92;71.05;94312.81;4971276;28;20208;-84
2021/12/25 11:24:07;;;;;;;9.93;5.70;;;;;;;16.32;66.58;94288.28;4970539;28;20194;-78
2021/12/25 11:26:34;;;;;;;13.83;7.50;;;;;;;16.59;63.22;94275.66;4970965;28;20581;-77
2021/12/25 11:29:03;;;;;;;11.37;8.30;;;;;;;16.76;59.82;94295.88;4970970;28;20194;-75
2021/12/25 11:31:31;;;;;;;13.83;8.53;;;;;;;16.73;57.56;94295.47;4970189;28;20209;-76
2021/12/25 11:33:58;;;;;;;14.80;9.33;;;;;;;16.64;55.48;94301.69;4970567;28;20182;-76
2021/12/25 11:36:25;;;;;;;13.37;9.30;;;;;;;16.55;54.08;94288.91;4970538;28;20226;-78
2021/12/25 11:38:53;;;;;;;16.97;10.03;;;;;;;16.45;52.65;94287.59;4970923;28;20588;-77
2021/12/25 11:41:25;;;;;;;14.83;10.10;;;;;;;16.36;51.62;94286.91;4970250;28;20571;-77
2021/12/25 11:43:52;;;;;;;15.90;11.03;;;;;;;16.28;50.70;94287.06;4970797;28;20201;-76
2021/12/25 11:46:20;;;;;;;16.50;11.23;;;;;;;16.21;50.06;94281.03;4980872;28;20596;-76
2021/12/25 11:49:09;;;;;;;19.60;11.87;;;;;;;16.12;49.44;94282.09;4980978;28;20678;-81
2021/12/25 11:51:39;;;;;;;15.70;11.53;;;;;;;16.01;49.32;94278.19;4955871;29;20245;-80
2021/12/25 11:54:41;;;;;;;15.30;10.60;;;;;;;15.88;49.11;94290.94;4954741;29;20196;-80
2021/12/25 11:57:33;;;;;;;15.37;10.90;;;;;;;15.72;49.14;94290.19;4954916;29;20222;-76
2021/12/25 12:00:00;;;;;;;19.77;12.77;;;;;;;15.63;48.96;94290.38;4954148;29;20289;-80
2021/12/25 12:02:42;;;;;;;14.60;11.00;;;;;;;15.46;48.95;94290.59;4955236;29;20186;-74
2021/12/25 12:05:21;;;;;;;14.00;10.90;;;;;;;15.31;49.10;94290.56;4954497;29;20198;-80
2021/12/25 12:07:58;;;;;;;17.40;11.80;;;;;;;15.17;49.10;94283.63;4954557;29;20194;-82
2021/12/25 12:10:59;;;;;;;14.00;10.47;;;;;;;15.01;49.17;94284.56;4953728;29;20190;-80
2021/12/25 12:13:29;;;;;;;18.87;10.60;;;;;;;14.89;49.27;94280.81;4954188;29;20643;-82
2021/12/25 12:15:58;;;;;;;13.80;9.97;;;;;;;14.83;49.27;94276.38;4954471;29;20234;-78
2021/12/25 12:18:42;;;;;;;15.03;10.73;;;;;;;14.78;49.20;94278.66;4954257;29;20230;-81
2021/12/25 12:21:35;;;;;;;13.43;8.97;;;;;;;14.73;49.26;94292.06;4954193;28;20214;-78
2021/12/25 12:27:10;;;;;;;13.57;8.73;;;;;;;14.67;49.53;94284.22;4953582;28;20205;-74
2021/12/25 12:29:51;;;;;;;13.87;8.83;;;;;;;14.65;49.52;94291.31;4954326;29;20191;-75